< < Back
Terminal Aerodrome Forecast


Current Version              Previous Versions:   1  2  3  4  5  6  7  8  9  

Terminal Aerodrome Forecast

228
FTUS44 KBMX 260500
TAFBHM
TAF
KBHM 260520Z 2606/2706 32003KT P6SM BKN050 OVC100
     FM261600 22008KT P6SM SCT150
     FM270300 28009KT P6SM SKC=

Latest METAR

569
SAUS70 KWBC 261500 RRK
MTRBHM
METAR KBHM 261453Z 00000KT 10SM CLR 06/M02 A3020 RMK AO2 SLP227
T00561017 53015


USA.gov is the U.S. government's official web portal to all federal, state and local government web resources and services.